sensor_id;sensor_type;location;lat;lon;timestamp;temperature;humidity
10788;DHT22;5446;50.826;4.380;2023-05-07T00:00:17;16.00;99.90
10788;DHT22;5446;50.826;4.380;2023-05-07T00:02:45;16.00;99.90
10788;DHT22;5446;50.826;4.380;2023-05-07T00:05:11;16.00;99.90
10788;DHT22;5446;50.826;4.380;2023-05-07T00:07:36;15.90;99.90
10788;DHT22;5446;50.826;4.380;2023-05-07T00:10:03;15.90;99.90
10788;DHT22;5446;50.826;4.380;2023-05-07T00:12:29;15.90;99.90
10788;DHT22;5446;50.826;4.380;2023-05-07T00:15:01;15.90;99.90
10788;DHT22;5446;50.826;4.380;2023-05-07T00:17:27;16.00;99.90
10788;DHT22;5446;50.826;4.380;2023-05-07T00:19:53;15.90;99.90
10788;DHT22;5446;50.826;4.380;2023-05-07T00:22:18;15.90;99.90
10788;DHT22;5446;50.826;4.380;2023-05-07T00:24:44;15.90;99.90
10788;DHT22;5446;50.826;4.380;2023-05-07T00:27:10;15.90;99.90
10788;DHT22;5446;50.826;4.380;2023-05-07T00:29:36;15.90;99.90
10788;DHT22;5446;50.826;4.380;2023-05-07T00:32:02;15.90;99.90
10788;DHT22;5446;50.826;4.380;2023-05-07T00:34:28;15.90;99.90
10788;DHT22;5446;50.826;4.380;2023-05-07T00:36:53;15.90;99.90
10788;DHT22;5446;50.826;4.380;2023-05-07T00:39:19;15.90;99.90
10788;DHT22;5446;50.826;4.380;2023-05-07T00:41:45;15.90;99.90
10788;DHT22;5446;50.826;4.380;2023-05-07T00:44:11;15.90;99.90
10788;DHT22;5446;50.826;4.380;2023-05-07T00:46:37;15.90;99.90
10788;DHT22;5446;50.826;4.380;2023-05-07T00:49:03;15.80;99.90
10788;DHT22;5446;50.826;4.380;2023-05-07T00:51:30;15.80;99.90
10788;DHT22;5446;50.826;4.380;2023-05-07T00:53:56;15.80;99.90
10788;DHT22;5446;50.826;4.380;2023-05-07T00:56:22;15.80;99.90
10788;DHT22;5446;50.826;4.380;2023-05-07T00:58:49;15.80;99.90
10788;DHT22;5446;50.826;4.380;2023-05-07T01:01:15;15.80;99.90
10788;DHT22;5446;50.826;4.380;2023-05-07T01:03:43;15.80;99.90
10788;DHT22;5446;50.826;4.380;2023-05-07T01:06:10;15.80;99.90
10788;DHT22;5446;50.826;4.380;2023-05-07T01:08:41;15.80;99.90
10788;DHT22;5446;50.826;4.380;2023-05-07T01:11:08;15.70;99.90
10788;DHT22;5446;50.826;4.380;2023-05-07T01:13:35;15.70;99.90
10788;DHT22;5446;50.826;4.380;2023-05-07T01:16:02;15.70;99.90
10788;DHT22;5446;50.826;4.380;2023-05-07T01:18:28;15.70;99.90
10788;DHT22;5446;50.826;4.380;2023-05-07T01:20:58;15.70;99.90
10788;DHT22;5446;50.826;4.380;2023-05-07T01:23:24;15.70;99.90
10788;DHT22;5446;50.826;4.380;2023-05-07T01:25:54;15.70;99.90
10788;DHT22;5446;50.826;4.380;2023-05-07T01:28:19;15.60;99.90
10788;DHT22;5446;50.826;4.380;2023-05-07T01:31:00;15.60;99.90
10788;DHT22;5446;50.826;4.380;2023-05-07T01:33:29;15.60;99.90
10788;DHT22;5446;50.826;4.380;2023-05-07T01:35:59;15.50;99.90
10788;DHT22;5446;50.826;4.380;2023-05-07T01:38:28;15.50;99.90
10788;DHT22;5446;50.826;4.380;2023-05-07T01:40:55;15.50;99.90
10788;DHT22;5446;50.826;4.380;2023-05-07T01:43:21;15.40;99.90
10788;DHT22;5446;50.826;4.380;2023-05-07T01:45:47;15.40;99.90
10788;DHT22;5446;50.826;4.380;2023-05-07T01:48:14;15.40;99.90
10788;DHT22;5446;50.826;4.380;2023-05-07T01:50:41;15.40;99.90
10788;DHT22;5446;50.826;4.380;2023-05-07T01:53:08;15.40;99.90
10788;DHT22;5446;50.826;4.380;2023-05-07T01:55:34;15.40;99.90
10788;DHT22;5446;50.826;4.380;2023-05-07T01:58:00;15.40;99.90
10788;DHT22;5446;50.826;4.380;2023-05-07T02:00:25;15.40;99.90
10788;DHT22;5446;50.826;4.380;2023-05-07T02:02:51;15.40;99.90
10788;DHT22;5446;50.826;4.380;2023-05-07T02:05:18;15.40;99.90
10788;DHT22;5446;50.826;4.380;2023-05-07T02:07:43;15.30;99.90
10788;DHT22;5446;50.826;4.380;2023-05-07T02:10:09;15.30;99.90
10788;DHT22;5446;50.826;4.380;2023-05-07T02:12:35;15.30;99.90
10788;DHT22;5446;50.826;4.380;2023-05-07T02:15:01;15.30;99.90
10788;DHT22;5446;50.826;4.380;2023-05-07T02:17:27;15.30;99.90
10788;DHT22;5446;50.826;4.380;2023-05-07T02:19:53;15.30;99.90
10788;DHT22;5446;50.826;4.380;2023-05-07T02:22:18;15.20;99.90
10788;DHT22;5446;50.826;4.380;2023-05-07T02:24:44;15.20;99.90
10788;DHT22;5446;50.826;4.380;2023-05-07T02:27:10;15.20;99.90
10788;DHT22;5446;50.826;4.380;2023-05-07T02:29:36;15.10;99.90
10788;DHT22;5446;50.826;4.380;2023-05-07T02:32:02;15.10;99.90
10788;DHT22;5446;50.826;4.380;2023-05-07T02:34:27;15.10;99.90
10788;DHT22;5446;50.826;4.380;2023-05-07T02:36:53;15.00;99.90
10788;DHT22;5446;50.826;4.380;2023-05-07T02:39:19;15.00;99.90
10788;DHT22;5446;50.826;4.380;2023-05-07T02:41:45;15.00;99.90
10788;DHT22;5446;50.826;4.380;2023-05-07T02:44:10;15.00;99.90
10788;DHT22;5446;50.826;4.380;2023-05-07T02:46:36;15.00;99.90
10788;DHT22;5446;50.826;4.380;2023-05-07T02:49:02;15.00;99.90
10788;DHT22;5446;50.826;4.380;2023-05-07T02:51:27;14.90;99.90
10788;DHT22;5446;50.826;4.380;2023-05-07T02:53:53;14.90;99.90
10788;DHT22;5446;50.826;4.380;2023-05-07T02:56:20;14.90;99.90
10788;DHT22;5446;50.826;4.380;2023-05-07T02:58:55;14.90;99.90
10788;DHT22;5446;50.826;4.380;2023-05-07T03:01:22;15.00;99.90
10788;DHT22;5446;50.826;4.380;2023-05-07T03:03:47;15.00;99.90
10788;DHT22;5446;50.826;4.380;2023-05-07T03:06:13;15.00;99.90
10788;DHT22;5446;50.826;4.380;2023-05-07T03:08:39;15.00;99.90
10788;DHT22;5446;50.826;4.380;2023-05-07T03:11:05;15.00;99.90
10788;DHT22;5446;50.826;4.380;2023-05-07T03:13:30;15.00;99.90
10788;DHT22;5446;50.826;4.380;2023-05-07T03:15:56;15.00;99.90
10788;DHT22;5446;50.826;4.380;2023-05-07T03:18:22;15.00;99.90
10788;DHT22;5446;50.826;4.380;2023-05-07T03:20:48;15.10;99.90
10788;DHT22;5446;50.826;4.380;2023-05-07T03:23:14;15.10;99.90
10788;DHT22;5446;50.826;4.380;2023-05-07T03:25:40;15.10;99.90
10788;DHT22;5446;50.826;4.380;2023-05-07T03:28:05;15.10;99.90
10788;DHT22;5446;50.826;4.380;2023-05-07T03:30:31;15.10;99.90
10788;DHT22;5446;50.826;4.380;2023-05-07T03:32:57;15.20;99.90
10788;DHT22;5446;50.826;4.380;2023-05-07T03:35:23;15.20;99.90
10788;DHT22;5446;50.826;4.380;2023-05-07T03:37:48;15.20;99.90
10788;DHT22;5446;50.826;4.380;2023-05-07T03:40:14;15.20;99.90
10788;DHT22;5446;50.826;4.380;2023-05-07T03:42:40;15.20;99.90
10788;DHT22;5446;50.826;4.380;2023-05-07T03:45:07;15.30;99.90
10788;DHT22;5446;50.826;4.380;2023-05-07T03:47:32;15.30;99.90
10788;DHT22;5446;50.826;4.380;2023-05-07T03:49:58;15.30;99.90
10788;DHT22;5446;50.826;4.380;2023-05-07T03:52:24;15.30;99.90
10788;DHT22;5446;50.826;4.380;2023-05-07T03:54:52;15.30;99.90
10788;DHT22;5446;50.826;4.380;2023-05-07T03:57:18;15.30;99.90
10788;DHT22;5446;50.826;4.380;2023-05-07T03:59:44;15.40;99.90
10788;DHT22;5446;50.826;4.380;2023-05-07T04:02:09;15.40;99.90
10788;DHT22;5446;50.826;4.380;2023-05-07T04:04:35;15.40;99.90
10788;DHT22;5446;50.826;4.380;2023-05-07T04:07:01;15.40;99.90
10788;DHT22;5446;50.826;4.380;2023-05-07T04:09:27;15.40;99.90
10788;DHT22;5446;50.826;4.380;2023-05-07T04:11:52;15.40;99.90
10788;DHT22;5446;50.826;4.380;2023-05-07T04:14:18;15.40;99.90
10788;DHT22;5446;50.826;4.380;2023-05-07T04:16:44;15.40;99.90
10788;DHT22;5446;50.826;4.380;2023-05-07T04:19:09;15.40;99.90
10788;DHT22;5446;50.826;4.380;2023-05-07T04:21:35;15.40;99.90
10788;DHT22;5446;50.826;4.380;2023-05-07T04:24:03;15.50;99.90
10788;DHT22;5446;50.826;4.380;2023-05-07T04:26:29;15.40;99.90
10788;DHT22;5446;50.826;4.380;2023-05-07T04:28:55;15.50;99.90
10788;DHT22;5446;50.826;4.380;2023-05-07T04:31:22;15.50;99.90
10788;DHT22;5446;50.826;4.380;2023-05-07T04:33:47;15.50;99.90
10788;DHT22;5446;50.826;4.380;2023-05-07T04:36:13;15.50;99.90
10788;DHT22;5446;50.826;4.380;2023-05-07T04:38:39;15.50;99.90
10788;DHT22;5446;50.826;4.380;2023-05-07T04:41:06;15.50;99.90
10788;DHT22;5446;50.826;4.380;2023-05-07T04:43:32;15.50;99.90
10788;DHT22;5446;50.826;4.380;2023-05-07T04:45:58;15.50;99.90
10788;DHT22;5446;50.826;4.380;2023-05-07T04:48:24;15.60;99.90
10788;DHT22;5446;50.826;4.380;2023-05-07T04:50:50;15.60;99.90
10788;DHT22;5446;50.826;4.380;2023-05-07T04:53:17;15.60;99.90
10788;DHT22;5446;50.826;4.380;2023-05-07T04:55:43;15.60;99.90
10788;DHT22;5446;50.826;4.380;2023-05-07T04:58:09;15.70;99.90
10788;DHT22;5446;50.826;4.380;2023-05-07T05:00:35;15.70;99.90
10788;DHT22;5446;50.826;4.380;2023-05-07T05:03:00;15.70;99.90
10788;DHT22;5446;50.826;4.380;2023-05-07T05:05:26;15.80;99.90
10788;DHT22;5446;50.826;4.380;2023-05-07T05:07:52;15.80;99.90
10788;DHT22;5446;50.826;4.380;2023-05-07T05:10:18;15.90;99.90
10788;DHT22;5446;50.826;4.380;2023-05-07T05:12:44;15.90;99.90
10788;DHT22;5446;50.826;4.380;2023-05-07T05:15:12;16.00;99.90
10788;DHT22;5446;50.826;4.380;2023-05-07T05:17:38;16.10;99.90
10788;DHT22;5446;50.826;4.380;2023-05-07T05:20:05;16.10;99.90
10788;DHT22;5446;50.826;4.380;2023-05-07T05:22:31;16.20;99.90
10788;DHT22;5446;50.826;4.380;2023-05-07T05:24:57;16.30;99.90
10788;DHT22;5446;50.826;4.380;2023-05-07T05:27:23;16.30;99.90
10788;DHT22;5446;50.826;4.380;2023-05-07T05:29:49;16.40;99.90
10788;DHT22;5446;50.826;4.380;2023-05-07T05:32:15;16.40;99.90
10788;DHT22;5446;50.826;4.380;2023-05-07T05:34:41;16.40;99.90
10788;DHT22;5446;50.826;4.380;2023-05-07T05:37:06;16.40;99.90
10788;DHT22;5446;50.826;4.380;2023-05-07T05:39:32;16.50;99.90
10788;DHT22;5446;50.826;4.380;2023-05-07T05:41:58;16.40;99.90
10788;DHT22;5446;50.826;4.380;2023-05-07T05:44:24;16.40;99.90
10788;DHT22;5446;50.826;4.380;2023-05-07T05:46:50;16.40;99.90
10788;DHT22;5446;50.826;4.380;2023-05-07T05:49:16;16.50;99.90
10788;DHT22;5446;50.826;4.380;2023-05-07T05:51:42;16.50;99.90
10788;DHT22;5446;50.826;4.380;2023-05-07T05:54:08;16.60;99.90
10788;DHT22;5446;50.826;4.380;2023-05-07T05:56:34;16.60;99.90
10788;DHT22;5446;50.826;4.380;2023-05-07T05:59:00;16.70;99.90
10788;DHT22;5446;50.826;4.380;2023-05-07T06:01:26;16.70;99.90
10788;DHT22;5446;50.826;4.380;2023-05-07T06:03:52;16.60;99.90
10788;DHT22;5446;50.826;4.380;2023-05-07T06:06:17;16.60;99.90
10788;DHT22;5446;50.826;4.380;2023-05-07T06:08:43;16.50;99.90
10788;DHT22;5446;50.826;4.380;2023-05-07T06:11:09;16.40;99.90
10788;DHT22;5446;50.826;4.380;2023-05-07T06:13:35;16.40;99.90
10788;DHT22;5446;50.826;4.380;2023-05-07T06:16:01;16.40;99.90
10788;DHT22;5446;50.826;4.380;2023-05-07T06:18:26;16.30;99.90
10788;DHT22;5446;50.826;4.380;2023-05-07T06:20:53;16.30;99.90
10788;DHT22;5446;50.826;4.380;2023-05-07T06:23:19;16.30;99.90
10788;DHT22;5446;50.826;4.380;2023-05-07T06:25:49;16.20;99.90
10788;DHT22;5446;50.826;4.380;2023-05-07T06:28:18;16.10;99.90
10788;DHT22;5446;50.826;4.380;2023-05-07T06:30:44;16.00;99.90
10788;DHT22;5446;50.826;4.380;2023-05-07T06:33:10;16.10;99.90
10788;DHT22;5446;50.826;4.380;2023-05-07T06:35:36;16.10;99.90
10788;DHT22;5446;50.826;4.380;2023-05-07T06:38:02;16.10;99.90
10788;DHT22;5446;50.826;4.380;2023-05-07T06:40:27;16.00;99.90
10788;DHT22;5446;50.826;4.380;2023-05-07T06:42:53;16.00;99.90
10788;DHT22;5446;50.826;4.380;2023-05-07T06:45:19;16.00;99.90
10788;DHT22;5446;50.826;4.380;2023-05-07T06:47:45;15.90;99.90
10788;DHT22;5446;50.826;4.380;2023-05-07T06:50:11;15.90;99.90
10788;DHT22;5446;50.826;4.380;2023-05-07T06:52:37;15.80;99.90
10788;DHT22;5446;50.826;4.380;2023-05-07T06:55:03;15.80;99.90
10788;DHT22;5446;50.826;4.380;2023-05-07T06:57:29;15.80;99.90
10788;DHT22;5446;50.826;4.380;2023-05-07T06:59:55;15.80;99.90
10788;DHT22;5446;50.826;4.380;2023-05-07T07:02:21;15.80;99.90
10788;DHT22;5446;50.826;4.380;2023-05-07T07:04:47;15.80;99.90
10788;DHT22;5446;50.826;4.380;2023-05-07T07:07:12;15.80;99.90
10788;DHT22;5446;50.826;4.380;2023-05-07T07:09:38;15.80;99.90
10788;DHT22;5446;50.826;4.380;2023-05-07T07:12:04;15.80;99.90
10788;DHT22;5446;50.826;4.380;2023-05-07T07:14:30;15.80;99.90
10788;DHT22;5446;50.826;4.380;2023-05-07T07:16:56;15.70;99.90
10788;DHT22;5446;50.826;4.380;2023-05-07T07:19:21;15.70;99.90
10788;DHT22;5446;50.826;4.380;2023-05-07T07:21:47;15.60;99.90
10788;DHT22;5446;50.826;4.380;2023-05-07T07:24:14;15.60;99.90
10788;DHT22;5446;50.826;4.380;2023-05-07T07:26:44;15.60;99.90
10788;DHT22;5446;50.826;4.380;2023-05-07T07:29:10;15.70;99.90
10788;DHT22;5446;50.826;4.380;2023-05-07T07:31:36;15.70;99.90
10788;DHT22;5446;50.826;4.380;2023-05-07T07:34:01;15.70;99.90
10788;DHT22;5446;50.826;4.380;2023-05-07T07:36:27;15.70;99.90
10788;DHT22;5446;50.826;4.380;2023-05-07T07:38:54;15.70;99.90
10788;DHT22;5446;50.826;4.380;2023-05-07T07:41:20;15.60;99.90
10788;DHT22;5446;50.826;4.380;2023-05-07T07:43:45;15.80;99.90
10788;DHT22;5446;50.826;4.380;2023-05-07T07:46:12;15.80;99.90
10788;DHT22;5446;50.826;4.380;2023-05-07T07:48:37;15.90;99.90
10788;DHT22;5446;50.826;4.380;2023-05-07T07:51:03;16.00;99.90
10788;DHT22;5446;50.826;4.380;2023-05-07T07:53:30;16.00;99.90
10788;DHT22;5446;50.826;4.380;2023-05-07T07:55:56;15.90;99.90
10788;DHT22;5446;50.826;4.380;2023-05-07T07:58:21;15.90;99.90
10788;DHT22;5446;50.826;4.380;2023-05-07T08:00:48;15.90;99.90
10788;DHT22;5446;50.826;4.380;2023-05-07T08:03:14;15.90;99.90
10788;DHT22;5446;50.826;4.380;2023-05-07T08:05:42;16.00;99.90
10788;DHT22;5446;50.826;4.380;2023-05-07T08:08:08;16.00;99.90
10788;DHT22;5446;50.826;4.380;2023-05-07T08:10:34;15.90;99.90
10788;DHT22;5446;50.826;4.380;2023-05-07T08:13:03;15.90;99.90
10788;DHT22;5446;50.826;4.380;2023-05-07T08:15:30;15.90;99.90
10788;DHT22;5446;50.826;4.380;2023-05-07T08:17:56;15.80;99.90
10788;DHT22;5446;50.826;4.380;2023-05-07T08:20:25;15.90;99.90
10788;DHT22;5446;50.826;4.380;2023-05-07T08:22:51;15.90;99.90
10788;DHT22;5446;50.826;4.380;2023-05-07T08:25:17;15.90;99.90
10788;DHT22;5446;50.826;4.380;2023-05-07T08:27:43;16.00;99.90
10788;DHT22;5446;50.826;4.380;2023-05-07T08:30:10;15.90;99.90
10788;DHT22;5446;50.826;4.380;2023-05-07T08:32:36;16.00;99.90
10788;DHT22;5446;50.826;4.380;2023-05-07T08:35:02;16.00;99.90
10788;DHT22;5446;50.826;4.380;2023-05-07T08:37:28;16.00;99.90
10788;DHT22;5446;50.826;4.380;2023-05-07T08:39:54;16.10;99.90
10788;DHT22;5446;50.826;4.380;2023-05-07T08:42:20;16.10;99.90
10788;DHT22;5446;50.826;4.380;2023-05-07T08:44:51;16.10;99.90
10788;DHT22;5446;50.826;4.380;2023-05-07T08:47:19;16.10;99.90
10788;DHT22;5446;50.826;4.380;2023-05-07T08:49:46;16.00;99.90
10788;DHT22;5446;50.826;4.380;2023-05-07T08:52:12;16.00;99.90
10788;DHT22;5446;50.826;4.380;2023-05-07T08:54:38;16.00;99.90
10788;DHT22;5446;50.826;4.380;2023-05-07T08:57:05;16.10;99.90
10788;DHT22;5446;50.826;4.380;2023-05-07T08:59:30;16.00;99.90
10788;DHT22;5446;50.826;4.380;2023-05-07T09:01:56;16.00;99.90
10788;DHT22;5446;50.826;4.380;2023-05-07T09:04:22;16.10;99.90
10788;DHT22;5446;50.826;4.380;2023-05-07T09:06:48;16.00;99.90
10788;DHT22;5446;50.826;4.380;2023-05-07T09:09:21;16.00;99.90
10788;DHT22;5446;50.826;4.380;2023-05-07T09:11:47;16.20;99.90
10788;DHT22;5446;50.826;4.380;2023-05-07T09:14:13;16.30;99.90
10788;DHT22;5446;50.826;4.380;2023-05-07T09:16:39;16.40;99.90
10788;DHT22;5446;50.826;4.380;2023-05-07T09:19:05;16.50;99.90
10788;DHT22;5446;50.826;4.380;2023-05-07T09:21:31;16.60;99.90
10788;DHT22;5446;50.826;4.380;2023-05-07T09:23:57;16.70;99.90
10788;DHT22;5446;50.826;4.380;2023-05-07T09:26:23;16.60;99.90
10788;DHT22;5446;50.826;4.380;2023-05-07T09:28:49;16.60;99.90
10788;DHT22;5446;50.826;4.380;2023-05-07T09:31:16;16.50;99.90
10788;DHT22;5446;50.826;4.380;2023-05-07T09:33:41;16.70;99.90
10788;DHT22;5446;50.826;4.380;2023-05-07T09:36:09;16.90;99.90
10788;DHT22;5446;50.826;4.380;2023-05-07T09:38:37;17.00;99.90
10788;DHT22;5446;50.826;4.380;2023-05-07T09:41:11;17.10;99.90
10788;DHT22;5446;50.826;4.380;2023-05-07T09:43:39;17.20;99.90
10788;DHT22;5446;50.826;4.380;2023-05-07T09:46:15;17.30;99.90
10788;DHT22;5446;50.826;4.380;2023-05-07T09:48:43;17.50;99.90
10788;DHT22;5446;50.826;4.380;2023-05-07T09:53:48;17.60;99.90
10788;DHT22;5446;50.826;4.380;2023-05-07T09:56:16;17.50;99.90
10788;DHT22;5446;50.826;4.380;2023-05-07T09:58:43;17.70;99.90
10788;DHT22;5446;50.826;4.380;2023-05-07T10:01:11;17.60;99.90
10788;DHT22;5446;50.826;4.380;2023-05-07T10:03:41;17.50;99.90
10788;DHT22;5446;50.826;4.380;2023-05-07T10:06:10;17.40;99.90
10788;DHT22;5446;50.826;4.380;2023-05-07T10:08:37;17.40;99.90
10788;DHT22;5446;50.826;4.380;2023-05-07T10:11:04;17.30;99.90
10788;DHT22;5446;50.826;4.380;2023-05-07T10:13:30;17.30;99.90
10788;DHT22;5446;50.826;4.380;2023-05-07T10:15:57;17.30;99.90
10788;DHT22;5446;50.826;4.380;2023-05-07T10:18:23;17.40;99.90
10788;DHT22;5446;50.826;4.380;2023-05-07T10:20:55;17.50;99.90
10788;DHT22;5446;50.826;4.380;2023-05-07T10:23:25;17.50;99.90
10788;DHT22;5446;50.826;4.380;2023-05-07T10:25:53;17.40;99.90
10788;DHT22;5446;50.826;4.380;2023-05-07T10:28:20;17.50;99.90
10788;DHT22;5446;50.826;4.380;2023-05-07T10:31:15;17.50;99.90
10788;DHT22;5446;50.826;4.380;2023-05-07T10:33:45;17.60;99.90
10788;DHT22;5446;50.826;4.380;2023-05-07T10:36:12;17.60;99.90
10788;DHT22;5446;50.826;4.380;2023-05-07T10:38:38;17.60;99.90
10788;DHT22;5446;50.826;4.380;2023-05-07T10:41:06;17.70;99.90
10788;DHT22;5446;50.826;4.380;2023-05-07T10:43:42;17.80;99.90
10788;DHT22;5446;50.826;4.380;2023-05-07T10:46:18;17.80;99.90
10788;DHT22;5446;50.826;4.380;2023-05-07T10:51:30;17.70;99.90
10788;DHT22;5446;50.826;4.380;2023-05-07T10:56:41;18.00;99.90
10788;DHT22;5446;50.826;4.380;2023-05-07T10:59:34;17.80;99.90
10788;DHT22;5446;50.826;4.380;2023-05-07T11:02:06;17.70;99.90
10788;DHT22;5446;50.826;4.380;2023-05-07T11:04:33;17.70;99.90
10788;DHT22;5446;50.826;4.380;2023-05-07T11:17:32;18.30;99.90
10788;DHT22;5446;50.826;4.380;2023-05-07T11:20:01;18.20;99.90
10788;DHT22;5446;50.826;4.380;2023-05-07T11:24:59;18.30;99.90
10788;DHT22;5446;50.826;4.380;2023-05-07T11:27:25;18.20;99.90
10788;DHT22;5446;50.826;4.380;2023-05-07T11:29:52;18.30;99.90
10788;DHT22;5446;50.826;4.380;2023-05-07T11:32:24;18.50;99.90
10788;DHT22;5446;50.826;4.380;2023-05-07T11:34:55;18.20;99.90
10788;DHT22;5446;50.826;4.380;2023-05-07T11:37:22;18.10;99.90
10788;DHT22;5446;50.826;4.380;2023-05-07T11:39:49;18.30;99.90
10788;DHT22;5446;50.826;4.380;2023-05-07T11:42:32;18.30;99.90
10788;DHT22;5446;50.826;4.380;2023-05-07T11:44:59;18.10;99.90
10788;DHT22;5446;50.826;4.380;2023-05-07T11:47:25;18.10;99.90
10788;DHT22;5446;50.826;4.380;2023-05-07T11:49:54;18.10;99.90
10788;DHT22;5446;50.826;4.380;2023-05-07T11:52:22;18.10;99.90
10788;DHT22;5446;50.826;4.380;2023-05-07T11:54:54;18.30;99.90
10788;DHT22;5446;50.826;4.380;2023-05-07T11:57:21;18.20;99.90
10788;DHT22;5446;50.826;4.380;2023-05-07T11:59:47;18.10;99.90
10788;DHT22;5446;50.826;4.380;2023-05-07T12:02:17;18.40;99.90
10788;DHT22;5446;50.826;4.380;2023-05-07T12:04:43;18.40;99.90
10788;DHT22;5446;50.826;4.380;2023-05-07T12:07:13;18.60;99.90
10788;DHT22;5446;50.826;4.380;2023-05-07T12:09:40;18.80;99.90
10788;DHT22;5446;50.826;4.380;2023-05-07T12:12:06;18.80;99.90
10788;DHT22;5446;50.826;4.380;2023-05-07T12:14:32;18.70;99.90
10788;DHT22;5446;50.826;4.380;2023-05-07T12:17:00;18.80;99.90
10788;DHT22;5446;50.826;4.380;2023-05-07T12:19:29;18.80;99.90
10788;DHT22;5446;50.826;4.380;2023-05-07T12:21:56;18.70;99.90
10788;DHT22;5446;50.826;4.380;2023-05-07T12:24:22;18.70;99.90
10788;DHT22;5446;50.826;4.380;2023-05-07T12:26:48;18.60;99.90
10788;DHT22;5446;50.826;4.380;2023-05-07T12:29:14;18.70;99.90
10788;DHT22;5446;50.826;4.380;2023-05-07T12:31:43;18.60;99.90
10788;DHT22;5446;50.826;4.380;2023-05-07T12:34:12;18.40;99.90
10788;DHT22;5446;50.826;4.380;2023-05-07T12:36:39;18.50;99.90
10788;DHT22;5446;50.826;4.380;2023-05-07T12:39:08;18.40;99.90
10788;DHT22;5446;50.826;4.380;2023-05-07T12:42:04;18.60;99.90
10788;DHT22;5446;50.826;4.380;2023-05-07T12:44:32;18.60;99.90
10788;DHT22;5446;50.826;4.380;2023-05-07T12:46:58;18.50;99.90
10788;DHT22;5446;50.826;4.380;2023-05-07T12:49:26;18.60;99.90
10788;DHT22;5446;50.826;4.380;2023-05-07T12:51:54;18.60;99.90
10788;DHT22;5446;50.826;4.380;2023-05-07T12:54:33;18.70;99.90
10788;DHT22;5446;50.826;4.380;2023-05-07T12:57:09;18.70;99.90
10788;DHT22;5446;50.826;4.380;2023-05-07T12:59:37;18.70;99.90
10788;DHT22;5446;50.826;4.380;2023-05-07T13:02:04;18.80;99.90
10788;DHT22;5446;50.826;4.380;2023-05-07T13:04:29;18.70;99.90
10788;DHT22;5446;50.826;4.380;2023-05-07T13:06:55;18.90;99.90
10788;DHT22;5446;50.826;4.380;2023-05-07T13:09:21;19.10;99.90
10788;DHT22;5446;50.826;4.380;2023-05-07T13:11:48;19.10;99.90
10788;DHT22;5446;50.826;4.380;2023-05-07T13:14:15;19.20;99.90
10788;DHT22;5446;50.826;4.380;2023-05-07T13:16:41;19.10;99.90
10788;DHT22;5446;50.826;4.380;2023-05-07T13:19:07;19.20;99.90
10788;DHT22;5446;50.826;4.380;2023-05-07T13:21:32;19.00;99.90
10788;DHT22;5446;50.826;4.380;2023-05-07T13:23:58;18.90;99.90
10788;DHT22;5446;50.826;4.380;2023-05-07T13:26:24;18.80;99.90
10788;DHT22;5446;50.826;4.380;2023-05-07T13:28:51;18.80;99.90
10788;DHT22;5446;50.826;4.380;2023-05-07T13:31:17;18.80;99.90
10788;DHT22;5446;50.826;4.380;2023-05-07T13:33:43;18.80;99.90
10788;DHT22;5446;50.826;4.380;2023-05-07T13:36:09;18.70;99.90
10788;DHT22;5446;50.826;4.380;2023-05-07T13:38:35;18.70;99.90
10788;DHT22;5446;50.826;4.380;2023-05-07T13:41:04;18.60;99.90
10788;DHT22;5446;50.826;4.380;2023-05-07T13:43:29;18.60;99.90
10788;DHT22;5446;50.826;4.380;2023-05-07T13:45:56;18.50;99.90
10788;DHT22;5446;50.826;4.380;2023-05-07T13:48:21;18.50;99.90
10788;DHT22;5446;50.826;4.380;2023-05-07T13:50:48;18.50;99.90
10788;DHT22;5446;50.826;4.380;2023-05-07T13:53:14;18.60;99.90
10788;DHT22;5446;50.826;4.380;2023-05-07T13:55:44;18.50;99.90
10788;DHT22;5446;50.826;4.380;2023-05-07T13:58:11;18.60;99.90
10788;DHT22;5446;50.826;4.380;2023-05-07T14:00:37;18.60;99.90
10788;DHT22;5446;50.826;4.380;2023-05-07T14:03:04;18.70;99.90
10788;DHT22;5446;50.826;4.380;2023-05-07T14:05:30;18.60;99.90
10788;DHT22;5446;50.826;4.380;2023-05-07T14:07:58;18.60;99.90
10788;DHT22;5446;50.826;4.380;2023-05-07T14:10:24;18.50;99.90
10788;DHT22;5446;50.826;4.380;2023-05-07T14:12:51;18.60;99.90
10788;DHT22;5446;50.826;4.380;2023-05-07T14:15:18;18.50;99.90
10788;DHT22;5446;50.826;4.380;2023-05-07T14:17:44;18.60;99.90
10788;DHT22;5446;50.826;4.380;2023-05-07T14:20:12;18.60;99.90
10788;DHT22;5446;50.826;4.380;2023-05-07T14:22:38;18.60;99.90
10788;DHT22;5446;50.826;4.380;2023-05-07T14:25:04;18.70;99.90
10788;DHT22;5446;50.826;4.380;2023-05-07T14:27:31;18.70;99.90
10788;DHT22;5446;50.826;4.380;2023-05-07T14:29:57;18.80;99.90
10788;DHT22;5446;50.826;4.380;2023-05-07T14:32:23;18.70;99.90
10788;DHT22;5446;50.826;4.380;2023-05-07T14:34:50;18.70;99.90
10788;DHT22;5446;50.826;4.380;2023-05-07T14:37:16;18.60;99.90
10788;DHT22;5446;50.826;4.380;2023-05-07T14:39:42;18.60;99.90
10788;DHT22;5446;50.826;4.380;2023-05-07T14:42:07;18.50;99.90
10788;DHT22;5446;50.826;4.380;2023-05-07T14:44:35;18.50;99.90
10788;DHT22;5446;50.826;4.380;2023-05-07T14:47:01;18.50;99.90
10788;DHT22;5446;50.826;4.380;2023-05-07T14:49:26;18.50;99.90
10788;DHT22;5446;50.826;4.380;2023-05-07T14:51:52;18.80;99.90
10788;DHT22;5446;50.826;4.380;2023-05-07T14:54:19;18.80;99.90
10788;DHT22;5446;50.826;4.380;2023-05-07T14:56:45;18.80;99.90
10788;DHT22;5446;50.826;4.380;2023-05-07T14:59:10;18.80;99.90
10788;DHT22;5446;50.826;4.380;2023-05-07T15:01:37;18.70;99.90
10788;DHT22;5446;50.826;4.380;2023-05-07T15:04:04;18.70;99.90
10788;DHT22;5446;50.826;4.380;2023-05-07T15:06:30;18.80;99.90
10788;DHT22;5446;50.826;4.380;2023-05-07T15:08:56;18.90;99.90
10788;DHT22;5446;50.826;4.380;2023-05-07T15:11:22;18.80;99.90
10788;DHT22;5446;50.826;4.380;2023-05-07T15:13:48;18.80;99.90
10788;DHT22;5446;50.826;4.380;2023-05-07T15:16:14;18.90;99.90
10788;DHT22;5446;50.826;4.380;2023-05-07T15:18:40;18.80;99.90
10788;DHT22;5446;50.826;4.380;2023-05-07T15:21:06;18.70;99.90
10788;DHT22;5446;50.826;4.380;2023-05-07T15:23:31;18.70;99.90
10788;DHT22;5446;50.826;4.380;2023-05-07T15:25:57;18.80;99.90
10788;DHT22;5446;50.826;4.380;2023-05-07T15:28:23;18.60;99.90
10788;DHT22;5446;50.826;4.380;2023-05-07T15:30:50;18.60;99.90
10788;DHT22;5446;50.826;4.380;2023-05-07T15:33:16;18.60;99.90
10788;DHT22;5446;50.826;4.380;2023-05-07T15:35:42;18.70;99.90
10788;DHT22;5446;50.826;4.380;2023-05-07T15:38:08;18.70;99.90
10788;DHT22;5446;50.826;4.380;2023-05-07T15:40:34;18.70;99.90
10788;DHT22;5446;50.826;4.380;2023-05-07T15:43:03;18.80;99.90
10788;DHT22;5446;50.826;4.380;2023-05-07T15:45:28;18.70;99.90
10788;DHT22;5446;50.826;4.380;2023-05-07T15:47:54;18.60;99.90
10788;DHT22;5446;50.826;4.380;2023-05-07T15:50:20;18.70;99.90
10788;DHT22;5446;50.826;4.380;2023-05-07T15:52:46;18.70;99.90
10788;DHT22;5446;50.826;4.380;2023-05-07T15:55:12;18.70;99.90
10788;DHT22;5446;50.826;4.380;2023-05-07T15:57:38;18.60;99.90
10788;DHT22;5446;50.826;4.380;2023-05-07T16:00:04;18.60;99.90
10788;DHT22;5446;50.826;4.380;2023-05-07T16:02:34;18.60;99.90